Portada
METAR-TAF:

METAR-TAF

Aeroports :

Rockhampton, Austràlia

latitud: 23-23S, longitud: 150-28E, altitud: 10 m

Observació

L'informe es va fer fa 29 minuts, a les 06:00 UTC
Vent 10 kt del Est/Nord-Est
Temperatura 32°C
Humitat 43%
Pressió 1010 hPa
Visibilitat 10 km o més

METAR: YBRK 230600Z AUTO 06010KT 9999 // NCD 32/18 Q1010

Hora: 16:29 (06:29 UTC)

Pronòstic

L'informe es va fer fa 58 minuts, a les 05:31 UTC
Pronòstic vàlid del 23 a les 06 UTC al 24 a les 06 UTC
Vent 10 kt del Est/Nord-Est
Visibilitat 10 km o més
Escasses núvols a una alçada de 5000 ft
A partir de les 23 a les 1200 UTC
Vent 6 kt del Sud-Est
Visibilitat 10 km o més
Escasses núvols a una alçada de 2500 ft
A partir de les 24 a les 0200 UTC
Vent 12 kt del Est
Visibilitat 10 km o més
Núvols disperses a una alçada de 4500 ft

TAF: YBRK 230531Z 2306/2406 07010KT 9999 FEW050 FM231200 13006KT 9999 FEW025 FM240200 10012KT 9999 SCT045

Observacions i pronòstics meteorològics de més de 4000 aeroports (METAR i TAF).

Les estacions disponibles són els punts grocs i vermells al mapa.

Posi el ratolí al punt desitjat per veure el nom de l'estació.

Feu clic per veure les observacions i els pronòstics meteorològics.

Per canviar el mapa: feu clic els botons verds amb una creu de color negre per apropar; al botó verd amb un guió per allunyar la imatge; o en les fletxes verdes per a mapes adjacents.


METAR-TAF: